Jefferson, NC

2:52 PM EDT on June 22, 2017 (GMT -0400)
580 WKSK & 93.5 FM The Farm | | Change Station

Elev 3146 ft 36.41 °N, 81.50 °W | Updated 5 seconds ago

Rain
Rain
65.3 °F
Feels Like 65.3 °F
N
0.0
Wind Variable Wind from North
Gusts 0.0 mph

Today
High -- | Low -- °F
--% Chance of Precip.
Yesterday
High -- | Low -- °F
Precip. -- in
Pressure 30.23 in
Visibility 4.0 miles
Clouds Scattered Clouds 3500 ft
Mostly Cloudy 4800 ft
Overcast 6000 ft
Dew Point 64 °F
Humidity 96%
Rainfall 0.23 in
Snow Depth Not available.
6:08 AM 8:47 PM
Waning Crescent, 3% visible
METAR KGEV 221900Z AUTO 00000KT 4SM RA SCT035 BKN048 OVC060 18/17 A3023 RMK AO2 P0001 T01830173
Pressure 30.23 in
Visibility 4.0 miles
Clouds Scattered Clouds 3500 ft
Mostly Cloudy 4800 ft
Overcast 6000 ft
Dew Point 64 °F
Humidity 96%
Rainfall 0.23 in
Snow Depth Not available.
6:08 AM 8:47 PM
Waning Crescent, 3% visible
METAR KGEV 221900Z AUTO 00000KT 4SM RA SCT035 BKN048 OVC060 18/17 A3023 RMK AO2 P0001 T01830173

Get Severe Weather Alerts

Thanks for signing up!

Be on the lookout for a verification email in your inbox.

You'll start receiving the daily forecast at 6 AM.

×

10-Day Weather Forecast

Almanac

Astronomy

Jun. 22, 2017 Rise Set
Actual Time
Civil Twilight
Nautical Twilight
Astronomical Twilight
Moon
Length of Visible Light
Length of Day
Tomorrow will be .
, % of the Moon is Illuminated

Today's Extremes

State Highs State Lows

Community

WunderPhotos

Category 6

Welcome to Category 6. This is the collective home for Weather Underground's featured writeups by Dr. Jeff Masters (right), Bob Henson (left), Chris Burt, and other regular contributors.

Nearby

Air Quality

  Air Quality AQ Index Pollutant
Not available.

Snow Depth

Station Depth Elevation

Earthquake Activity

City Distance Mag. Time & Date
Minimum magnitude displayed is 2.5.

Coastal Water Temperatures

Place Temperature

Stations

Nearby Weather Stations

Station Location Temp. Windchill Dew Point Humidity Wind Precip. Elev Updated Type
                   

Watches & Warnings

There are currently no watches in effect.